Time;durP1;ratioP1;P1;durP2;ratioP2;P2;SDS_P1;SDS_P2;PMS_P1;PMS_P2;Temp;Humidity;BMP_temperature;BMP_pressure;BME280_temperature;BME280_humidity;BME280_pressure;Samples;Min_cycle;Max_cycle;Signal;HPM_P1;HPM_P2
2023/12/13 00:00:25;;;;;;;;;;;;;;;6.61;100.00;98983.47;4899588;29;19985;-74
2023/12/13 00:03:28;;;;;;;;;;;;;;;6.59;100.00;98985.31;4899490;29;19922;-74
2023/12/13 00:06:32;;;;;;;;;;;;;;;6.58;100.00;99000.06;4899819;29;19977;-74
2023/12/13 00:09:35;;;;;;;;;;;;;;;6.68;100.00;98974.38;4895865;29;19923;-74
2023/12/13 00:12:38;;;;;;;;;;;;;;;6.66;100.00;98971.03;4896128;29;19962;-74
2023/12/13 00:15:41;;;;;;;;;;;;;;;6.67;100.00;98975.31;4899306;29;19922;-75
2023/12/13 00:18:46;;;;;;;;;;;;;;;6.53;100.00;98983.91;4899486;29;19922;-75
2023/12/13 00:21:49;;;;;;;;;;;;;;;6.65;100.00;98971.97;4899247;29;19922;-75
2023/12/13 00:24:53;;;;;;;;;;;;;;;6.77;100.00;98971.22;4899152;29;20051;-75
2023/12/13 00:27:56;;;;;;;;;;;;;;;6.90;100.00;98969.53;4899024;29;19938;-75
2023/12/13 00:30:59;;;;;;;;;;;;;;;6.90;100.00;98958.28;4898986;29;19966;-75
2023/12/13 00:34:02;;;;;;;;;;;;;;;6.81;100.00;98969.25;4898946;29;20026;-75
2023/12/13 00:37:05;;;;;;;;;;;;;;;6.71;100.00;98975.00;4898998;29;20279;-75
2023/12/13 00:40:10;;;;;;;;;;;;;;;6.47;100.00;98974.72;4898734;29;19942;-75
2023/12/13 00:43:13;;;;;;;;;;;;;;;6.61;100.00;98975.69;4898742;29;19925;-75
2023/12/13 00:46:22;;;;;;;;;;;;;;;6.69;100.00;98969.06;4898832;29;19921;-75
2023/12/13 00:49:25;;;;;;;;;;;;;;;6.74;100.00;98963.59;4898700;29;19922;-75
2023/12/13 00:52:30;;;;;;;;;;;;;;;6.85;100.00;98949.94;4898582;29;20032;-75
2023/12/13 00:55:33;;;;;;;;;;;;;;;6.86;100.00;98959.41;4898672;29;20432;-75
2023/12/13 00:58:36;;;;;;;;;;;;;;;6.84;100.00;98959.50;4895185;29;20439;-75
2023/12/13 01:01:46;;;;;;;;;;;;;;;6.81;100.00;98957.09;4898604;29;20390;-75
2023/12/13 01:04:49;;;;;;;;;;;;;;;6.79;100.00;98953.75;4898447;29;19922;-75
2023/12/13 01:07:53;;;;;;;;;;;;;;;6.82;100.00;98965.72;4898143;29;19926;-76
2023/12/13 01:10:56;;;;;;;;;;;;;;;6.88;100.00;98965.34;4898371;29;19926;-76
2023/12/13 01:13:59;;;;;;;;;;;;;;;6.83;100.00;98957.00;4898415;29;20386;-75
2023/12/13 01:17:02;;;;;;;;;;;;;;;6.84;100.00;98958.69;4898353;29;20403;-74
2023/12/13 01:20:09;;;;;;;;;;;;;;;6.82;100.00;98958.75;4898515;29;20302;-75
2023/12/13 01:23:12;;;;;;;;;;;;;;;6.88;100.00;98954.94;4898339;29;19938;-75
2023/12/13 01:26:14;;;;;;;;;;;;;;;6.86;100.00;98954.19;4898555;29;19963;-75
2023/12/13 01:29:18;;;;;;;;;;;;;;;6.86;100.00;98954.19;4898198;29;20389;-75
2023/12/13 01:32:21;;;;;;;;;;;;;;;6.80;100.00;98952.00;4898305;29;20277;-75
2023/12/13 01:35:23;;;;;;;;;;;;;;;6.78;100.00;98951.25;4898212;29;20089;-75
2023/12/13 01:38:26;;;;;;;;;;;;;;;6.75;100.00;98953.09;4884853;29;19978;-76
2023/12/13 01:41:29;;;;;;;;;;;;;;;6.66;100.00;98951.06;4893905;29;19975;-75
2023/12/13 01:44:32;;;;;;;;;;;;;;;6.51;100.00;98957.22;4894160;29;19976;-76
2023/12/13 01:47:35;;;;;;;;;;;;;;;6.43;100.00;98955.06;4894448;29;19942;-76
2023/12/13 01:50:38;;;;;;;;;;;;;;;6.41;100.00;98956.09;4894897;29;20323;-76
2023/12/13 01:53:42;;;;;;;;;;;;;;;6.40;100.00;98970.00;4898315;29;19971;-76
2023/12/13 01:56:46;;;;;;;;;;;;;;;6.41;100.00;98972.50;4897996;29;19970;-76
2023/12/13 01:59:49;;;;;;;;;;;;;;;6.36;100.00;98969.34;4897989;29;20389;-76
2023/12/13 02:02:52;;;;;;;;;;;;;;;6.33;100.00;98977.31;4897873;29;20014;-76
2023/12/13 02:05:56;;;;;;;;;;;;;;;6.29;100.00;98968.88;4897907;29;20288;-76
2023/12/13 02:08:59;;;;;;;;;;;;;;;6.25;100.00;98966.53;4897943;29;20378;-76
2023/12/13 02:12:02;;;;;;;;;;;;;;;6.17;100.00;98968.78;4897822;29;19946;-76
2023/12/13 02:15:06;;;;;;;;;;;;;;;6.03;100.00;98970.44;4897905;29;19923;-76
2023/12/13 02:18:09;;;;;;;;;;;;;;;5.81;100.00;98967.38;4897820;29;19922;-76
2023/12/13 02:21:12;;;;;;;;;;;;;;;5.87;100.00;98954.06;4901547;29;19971;-76
2023/12/13 02:24:18;;;;;;;;;;;;;;;5.93;100.00;98966.69;4901530;29;19922;-75
2023/12/13 02:27:21;;;;;;;;;;;;;;;5.99;100.00;98968.09;4901356;29;20398;-75
2023/12/13 02:30:25;;;;;;;;;;;;;;;5.99;100.00;98965.50;4896244;29;19967;-75
2023/12/13 02:33:28;;;;;;;;;;;;;;;5.94;100.00;98972.72;4896690;29;20287;-76
2023/12/13 02:36:31;;;;;;;;;;;;;;;5.91;100.00;98970.28;4897104;29;19987;-75
2023/12/13 02:39:34;;;;;;;;;;;;;;;5.91;100.00;98959.91;4897190;29;19976;-76
2023/12/13 02:42:38;;;;;;;;;;;;;;;5.83;100.00;98963.75;4901043;29;19922;-76
2023/12/13 02:45:41;;;;;;;;;;;;;;;5.87;100.00;98960.97;4898153;29;19922;-75
2023/12/13 02:48:44;;;;;;;;;;;;;;;5.97;100.00;98960.41;4900871;29;19922;-75
2023/12/13 02:51:47;;;;;;;;;;;;;;;6.01;100.00;98954.09;4900870;29;20297;-75
2023/12/13 02:54:50;;;;;;;;;;;;;;;5.82;100.00;98963.84;4900856;29;19963;-76
2023/12/13 02:57:53;;;;;;;;;;;;;;;5.60;100.00;98956.47;4900755;29;19929;-76
2023/12/13 03:00:56;;;;;;;;;;;;;;;5.72;100.00;98952.34;4900760;29;19922;-76
2023/12/13 03:03:59;;;;;;;;;;;;;;;5.82;100.00;98948.28;4900558;29;19923;-77
2023/12/13 03:07:02;;;;;;;;;;;;;;;5.90;100.00;98940.88;4900602;29;19922;-76
2023/12/13 03:10:05;;;;;;;;;;;;;;;6.01;100.00;98948.09;4900522;29;20378;-77
2023/12/13 03:13:08;;;;;;;;;;;;;;;6.05;100.00;98945.22;4900561;29;19927;-76
2023/12/13 03:16:11;;;;;;;;;;;;;;;5.99;100.00;98934.34;4885255;29;19980;-76
2023/12/13 03:19:14;;;;;;;;;;;;;;;6.02;100.00;98934.19;4900274;29;19971;-76
2023/12/13 03:22:17;;;;;;;;;;;;;;;6.05;100.00;98940.00;4900374;29;19980;-76
2023/12/13 03:25:20;;;;;;;;;;;;;;;5.98;100.00;98930.94;4900334;29;19922;-76
2023/12/13 03:28:23;;;;;;;;;;;;;;;5.96;100.00;98930.19;4900225;29;19967;-75
2023/12/13 03:31:26;;;;;;;;;;;;;;;5.94;100.00;98921.66;4899835;29;19967;-75
2023/12/13 03:34:30;;;;;;;;;;;;;;;6.01;100.00;98916.94;4900060;29;19979;-76
2023/12/13 03:37:34;;;;;;;;;;;;;;;5.93;100.00;98916.56;4900074;29;19926;-75
2023/12/13 03:40:37;;;;;;;;;;;;;;;5.92;100.00;98914.88;4899861;29;19967;-75
2023/12/13 03:43:40;;;;;;;;;;;;;;;5.92;100.00;98922.66;4899998;29;20018;-75
2023/12/13 03:46:44;;;;;;;;;;;;;;;5.88;100.00;98916.81;4900210;29;19938;-75
2023/12/13 03:49:47;;;;;;;;;;;;;;;5.87;100.00;98919.47;4899836;29;19923;-75
2023/12/13 03:52:50;;;;;;;;;;;;;;;5.91;100.00;98920.97;4899803;29;19930;-75
2023/12/13 03:55:54;;;;;;;;;;;;;;;5.85;100.00;98918.75;4899688;29;19925;-75
2023/12/13 03:58:57;;;;;;;;;;;;;;;5.85;100.00;98923.94;4899950;29;20275;-75
2023/12/13 04:02:00;;;;;;;;;;;;;;;5.83;100.00;98927.44;4899543;29;20030;-76
2023/12/13 04:05:03;;;;;;;;;;;;;;;5.80;100.00;98917.25;4899521;29;19926;-76
2023/12/13 04:08:06;;;;;;;;;;;;;;;5.85;100.00;98926.53;4899512;29;20013;-75
2023/12/13 04:11:10;;;;;;;;;;;;;;;5.79;100.00;98925.94;4899350;29;20079;-76
2023/12/13 04:14:12;;;;;;;;;;;;;;;5.75;100.00;98924.47;4899332;29;20018;-76
2023/12/13 04:17:15;;;;;;;;;;;;;;;5.80;100.00;98919.00;4899308;29;19958;-76
2023/12/13 04:20:18;;;;;;;;;;;;;;;5.77;100.00;98920.00;4899539;29;19953;-76
2023/12/13 04:23:21;;;;;;;;;;;;;;;5.76;100.00;98907.97;4899226;29;19987;-75
2023/12/13 04:26:24;;;;;;;;;;;;;;;5.85;100.00;98910.97;4899100;29;19922;-75
2023/12/13 04:29:28;;;;;;;;;;;;;;;5.90;100.00;98909.75;4899016;29;19922;-75
2023/12/13 04:32:31;;;;;;;;;;;;;;;5.90;100.00;98909.75;4898943;29;19976;-75
2023/12/13 04:35:34;;;;;;;;;;;;;;;5.87;100.00;98909.97;4895316;29;19922;-75
2023/12/13 04:38:37;;;;;;;;;;;;;;;5.74;100.00;98903.78;4898882;29;19938;-75
2023/12/13 04:41:39;;;;;;;;;;;;;;;5.87;100.00;98903.91;4898299;29;20390;-75
2023/12/13 04:44:43;;;;;;;;;;;;;;;5.80;100.00;98904.25;4898798;29;20021;-75
2023/12/13 04:47:46;;;;;;;;;;;;;;;5.79;100.00;98902.59;4898754;29;20346;-75
2023/12/13 04:50:49;;;;;;;;;;;;;;;5.73;100.00;98910.75;4898941;29;20280;-75
2023/12/13 04:53:52;;;;;;;;;;;;;;;5.77;100.00;98909.63;4898714;29;19922;-75
2023/12/13 04:56:55;;;;;;;;;;;;;;;5.89;100.00;98907.25;4898633;29;19922;-75
2023/12/13 04:59:58;;;;;;;;;;;;;;;5.99;100.00;98904.06;4898571;29;19926;-76
2023/12/13 05:03:02;;;;;;;;;;;;;;;5.98;100.00;98904.16;4898548;29;20527;-73
2023/12/13 05:06:05;;;;;;;;;;;;;;;5.83;100.00;98904.09;4890261;29;19939;-75
2023/12/13 05:09:08;;;;;;;;;;;;;;;5.76;100.00;98900.19;4898474;29;19923;-76
2023/12/13 05:12:11;;;;;;;;;;;;;;;5.79;100.00;98904.38;4890893;29;19926;-77
2023/12/13 05:15:14;;;;;;;;;;;;;;;5.82;100.00;98899.84;4898396;29;20014;-81
2023/12/13 05:18:17;;;;;;;;;;;;;;;5.91;100.00;98895.03;4898284;29;20049;-77
2023/12/13 05:21:21;;;;;;;;;;;;;;;5.93;100.00;98880.22;4898346;29;20299;-75
2023/12/13 05:24:24;;;;;;;;;;;;;;;5.94;100.00;98890.53;4893419;29;19984;-75
2023/12/13 05:27:28;;;;;;;;;;;;;;;5.94;100.00;98890.53;4898283;29;20390;-76
2023/12/13 05:30:30;;;;;;;;;;;;;;;5.90;100.00;98891.59;4889118;29;20025;-76
2023/12/13 05:33:34;;;;;;;;;;;;;;;5.93;100.00;98888.03;4894360;29;19926;-76
2023/12/13 05:36:37;;;;;;;;;;;;;;;5.89;100.00;98883.91;4894852;29;19963;-77
2023/12/13 05:39:51;;;;;;;;;;;;;;;5.86;100.00;98886.69;4897725;29;20394;-78
2023/12/13 05:42:56;;;;;;;;;;;;;;;5.91;100.00;98872.53;4898338;29;19976;-75
2023/12/13 05:46:33;;;;;;;;;;;;;;;5.83;100.00;98874.72;4893596;29;20272;-77
2023/12/13 05:49:37;;;;;;;;;;;;;;;5.87;100.00;98867.59;4886552;29;19923;-76
2023/12/13 05:52:44;;;;;;;;;;;;;;;5.85;100.00;98874.66;4895426;29;19930;-76
2023/12/13 05:55:48;;;;;;;;;;;;;;;5.85;100.00;98874.66;4901766;29;19971;-74
2023/12/13 05:58:54;;;;;;;;;;;;;;;5.84;100.00;98881.59;4899073;29;19969;-75
2023/12/13 06:02:24;;;;;;;;;;;;;;;5.89;100.00;98878.72;4900059;29;19977;-77
2023/12/13 06:05:29;;;;;;;;;;;;;;;5.82;100.00;98871.31;4899554;29;20399;-75
2023/12/13 06:08:31;;;;;;;;;;;;;;;5.79;100.00;98870.66;4899703;29;19981;-75
2023/12/13 06:11:35;;;;;;;;;;;;;;;5.76;100.00;98870.84;4899508;29;19946;-75
2023/12/13 06:14:38;;;;;;;;;;;;;;;5.70;100.00;98866.84;4893947;29;19922;-74
2023/12/13 06:17:44;;;;;;;;;;;;;;;5.78;100.00;98880.19;4901398;29;19938;-78
2023/12/13 06:20:48;;;;;;;;;;;;;;;5.89;100.00;98870.94;4900384;29;19930;-81
2023/12/13 06:23:50;;;;;;;;;;;;;;;5.92;100.00;98870.75;4900730;29;19944;-79
2023/12/13 06:26:53;;;;;;;;;;;;;;;5.96;100.00;98877.47;4901312;29;20336;-78
2023/12/13 06:29:57;;;;;;;;;;;;;;;5.98;100.00;98868.66;4901100;29;19922;-78
2023/12/13 06:33:00;;;;;;;;;;;;;;;6.01;100.00;98865.06;4901180;29;19927;-75
2023/12/13 06:36:04;;;;;;;;;;;;;;;5.98;100.00;98863.47;4901198;29;19973;-77
2023/12/13 06:39:11;;;;;;;;;;;;;;;5.99;100.00;98869.50;4901059;29;19922;-78
2023/12/13 06:42:14;;;;;;;;;;;;;;;5.97;100.00;98868.78;4901139;29;19926;-75
2023/12/13 06:45:18;;;;;;;;;;;;;;;6.00;100.00;98859.03;4901014;29;20022;-76
2023/12/13 06:48:21;;;;;;;;;;;;;;;6.02;100.00;98858.94;4900897;29;19931;-76
2023/12/13 06:51:24;;;;;;;;;;;;;;;6.02;100.00;98857.16;4900774;29;20402;-77
2023/12/13 06:54:30;;;;;;;;;;;;;;;6.03;100.00;98858.00;4890907;29;19980;-76
2023/12/13 06:57:33;;;;;;;;;;;;;;;6.06;100.00;98847.44;4900711;29;20067;-77
2023/12/13 07:00:36;;;;;;;;;;;;;;;6.00;100.00;98856.44;4900674;29;19922;-77
2023/12/13 07:03:39;;;;;;;;;;;;;;;6.07;100.00;98849.13;4901035;29;19938;-73
2023/12/13 07:06:43;;;;;;;;;;;;;;;6.10;100.00;98848.94;4900203;29;19923;-76
2023/12/13 07:09:46;;;;;;;;;;;;;;;6.12;100.00;98846.25;4900450;29;20440;-76
2023/12/13 07:12:49;;;;;;;;;;;;;;;6.05;100.00;98845.78;4898942;29;19975;-75
2023/12/13 07:15:52;;;;;;;;;;;;;;;6.08;100.00;98850.78;4900515;29;19971;-75
2023/12/13 07:18:55;;;;;;;;;;;;;;;6.11;100.00;98845.41;4900293;29;19923;-76
2023/12/13 07:21:58;;;;;;;;;;;;;;;6.15;100.00;98849.47;4899745;29;20492;-75
2023/12/13 07:25:02;;;;;;;;;;;;;;;6.10;100.00;98851.53;4899365;29;19922;-75
2023/12/13 07:28:06;;;;;;;;;;;;;;;6.08;100.00;98847.34;4898917;29;20386;-75
2023/12/13 07:31:11;;;;;;;;;;;;;;;6.15;100.00;98844.28;4899229;29;19927;-75
2023/12/13 07:34:15;;;;;;;;;;;;;;;6.11;100.00;98855.78;4898510;29;19922;-75
2023/12/13 07:37:18;;;;;;;;;;;;;;;6.11;100.00;98853.19;4899322;29;20291;-75
2023/12/13 07:40:23;;;;;;;;;;;;;;;6.05;100.00;98856.16;4899026;29;20049;-75
2023/12/13 07:43:28;;;;;;;;;;;;;;;6.03;100.00;98864.03;4893666;29;19962;-75
2023/12/13 07:46:32;;;;;;;;;;;;;;;6.09;100.00;98862.81;4897572;29;20026;-77
2023/12/13 07:49:36;;;;;;;;;;;;;;;6.21;100.00;98856.88;4898503;29;19957;-76
2023/12/13 07:52:39;;;;;;;;;;;;;;;6.26;100.00;98867.84;4897539;29;19930;-77
2023/12/13 07:55:42;;;;;;;;;;;;;;;6.25;100.00;98866.19;4898619;29;19922;-76
2023/12/13 07:58:46;;;;;;;;;;;;;;;6.23;100.00;98865.44;4898582;29;19922;-77
2023/12/13 08:01:49;;;;;;;;;;;;;;;6.28;100.00;98868.56;4898739;29;20351;-77
2023/12/13 08:04:52;;;;;;;;;;;;;;;6.31;100.00;98866.72;4899098;29;19938;-77
2023/12/13 08:07:55;;;;;;;;;;;;;;;6.35;100.00;98870.78;4898922;29;19966;-77
2023/12/13 08:10:58;;;;;;;;;;;;;;;6.28;100.00;98871.16;4898464;29;19922;-77
2023/12/13 08:14:01;;;;;;;;;;;;;;;6.24;100.00;98876.63;4898663;29;19922;-77
2023/12/13 08:17:08;;;;;;;;;;;;;;;6.24;100.00;98877.47;4897491;29;19970;-77
2023/12/13 08:20:11;;;;;;;;;;;;;;;6.33;100.00;98875.25;4898542;29;19938;-77
2023/12/13 08:23:15;;;;;;;;;;;;;;;6.35;100.00;98873.38;4898820;29;20029;-78
2023/12/13 08:26:18;;;;;;;;;;;;;;;6.36;100.00;98880.25;4892041;29;19922;-77
2023/12/13 08:29:21;;;;;;;;;;;;;;;6.39;100.00;98874.88;4898533;29;20014;-78
2023/12/13 08:32:24;;;;;;;;;;;;;;;6.41;100.00;98878.19;4893270;29;19926;-75
2023/12/13 08:35:27;;;;;;;;;;;;;;;6.37;100.00;98871.53;4898639;29;19978;-76
2023/12/13 08:38:30;;;;;;;;;;;;;;;6.36;100.00;98878.50;4898086;29;19926;-76
2023/12/13 08:41:33;;;;;;;;;;;;;;;6.43;100.00;98876.34;4916792;29;20070;-72
2023/12/13 08:44:43;;;;;;;;;;;;;;;6.46;100.00;98871.81;4917070;29;19974;-74
2023/12/13 08:47:47;;;;;;;;;;;;;;;6.44;100.00;98867.63;4917072;29;19921;-74
2023/12/13 08:50:50;;;;;;;;;;;;;;;6.44;100.00;98878.00;4917015;29;20346;-74
2023/12/13 08:53:55;;;;;;;;;;;;;;;6.51;100.00;98874.97;4916952;29;19937;-74
2023/12/13 08:56:58;;;;;;;;;;;;;;;6.54;100.00;98868.75;4915312;29;19926;-74
2023/12/13 09:04:24;;;;;;;;;;;;;;;6.48;100.00;98879.50;4916469;29;19921;-74
2023/12/13 09:07:28;;;;;;;;;;;;;;;6.64;100.00;98876.81;4916518;29;19998;-74
2023/12/13 09:10:34;;;;;;;;;;;;;;;6.60;100.00;98880.50;4916478;29;19982;-74
2023/12/13 09:13:38;;;;;;;;;;;;;;;6.66;100.00;98878.34;4903244;29;19943;-74
2023/12/13 09:16:41;;;;;;;;;;;;;;;6.66;100.00;98877.50;4916550;29;19922;-74
2023/12/13 09:19:44;;;;;;;;;;;;;;;6.88;100.00;98879.59;4915462;29;19921;-74
2023/12/13 09:22:47;;;;;;;;;;;;;;;6.93;100.00;98882.75;4916504;29;20275;-74
2023/12/13 09:25:50;;;;;;;;;;;;;;;6.92;100.00;98883.66;4916152;29;19930;-74
2023/12/13 09:28:55;;;;;;;;;;;;;;;6.89;100.00;98887.31;4904030;29;19929;-74
2023/12/13 09:32:00;;;;;;;;;;;;;;;6.86;100.00;98894.44;4916010;29;19926;-74
2023/12/13 09:35:04;;;;;;;;;;;;;;;6.85;100.00;98892.78;4916163;29;19970;-74
2023/12/13 09:38:07;;;;;;;;;;;;;;;6.86;100.00;98899.63;4915999;29;19961;-74
2023/12/13 09:41:11;;;;;;;;;;;;;;;6.81;100.00;98901.72;4916104;29;19942;-74
2023/12/13 09:44:14;;;;;;;;;;;;;;;6.86;100.00;98910.03;4916074;29;19941;-74
2023/12/13 09:47:19;;;;;;;;;;;;;;;6.97;100.00;98908.44;4915981;29;20451;-74
2023/12/13 09:50:23;;;;;;;;;;;;;;;7.09;100.00;98912.03;4915513;29;20074;-73
2023/12/13 09:53:27;;;;;;;;;;;;;;;7.18;100.00;98910.63;4915963;29;19926;-74
2023/12/13 09:56:30;;;;;;;;;;;;;;;7.22;100.00;98918.13;4915539;29;20291;-74
2023/12/13 09:59:33;;;;;;;;;;;;;;;7.26;100.00;98917.91;4915058;29;19925;-74
2023/12/13 10:02:36;;;;;;;;;;;;;;;7.31;100.00;98913.25;4915835;29;19922;-74
2023/12/13 10:05:42;;;;;;;;;;;;;;;7.31;100.00;98908.06;4908743;29;19922;-74
2023/12/13 10:08:52;;;;;;;;;;;;;;;7.36;100.00;98909.41;4910202;29;19962;-74
2023/12/13 10:11:55;;;;;;;;;;;;;;;7.45;100.00;98915.78;4908091;29;19937;-67
2023/12/13 10:15:10;;;;;;;;;;;;;;;7.53;100.00;98910.94;4892047;29;19922;-76
2023/12/13 10:18:15;;;;;;;;;;;;;;;7.57;100.00;98922.81;4915044;29;19998;-76
2023/12/13 10:21:18;;;;;;;;;;;;;;;7.59;100.00;98913.09;4912736;29;20490;-75
2023/12/13 10:24:23;;;;;;;;;;;;;;;7.65;100.00;98909.28;4908248;29;19926;-77
2023/12/13 10:27:26;;;;;;;;;;;;;;;7.69;100.00;98900.34;4903042;29;19971;-75
2023/12/13 10:30:30;;;;;;;;;;;;;;;7.74;100.00;98907.84;4896866;29;19922;-76
2023/12/13 10:33:33;;;;;;;;;;;;;;;7.74;100.00;98908.66;4896800;29;19930;-74
2023/12/13 10:36:36;;;;;;;;;;;;;;;7.81;100.00;98914.28;4897045;29;20287;-76
2023/12/13 10:39:44;;;;;;;;;;;;;;;7.83;100.00;98915.03;4896490;29;20386;-78
2023/12/13 10:42:51;;;;;;;;;;;;;;;7.88;100.00;98910.34;4900231;29;19938;-77
2023/12/13 10:46:00;;;;;;;;;;;;;;;7.97;100.00;98909.72;4900883;29;20011;-76
2023/12/13 10:49:04;;;;;;;;;;;;;;;8.10;100.00;98908.00;4902127;29;19922;-71
2023/12/13 10:52:08;;;;;;;;;;;;;;;8.18;100.00;98904.03;4907144;29;20017;-74
2023/12/13 10:55:14;;;;;;;;;;;;;;;8.00;100.00;98904.31;4905883;29;19970;-74
2023/12/13 10:58:19;;;;;;;;;;;;;;;7.95;100.00;98901.22;4908089;29;19922;-74
2023/12/13 11:01:22;;;;;;;;;;;;;;;7.93;100.00;98901.31;4910359;29;19922;-73
2023/12/13 11:04:26;;;;;;;;;;;;;;;7.99;100.00;98896.63;4899653;29;19971;-73
2023/12/13 11:07:29;;;;;;;;;;;;;;;8.11;100.00;98898.41;4907779;29;19922;-75
2023/12/13 11:10:32;;;;;;;;;;;;;;;8.15;100.00;98900.69;4915190;29;19925;-74
2023/12/13 11:13:54;;;;;;;;;;;;;;;7.91;100.00;98902.34;4903600;29;20279;-74
2023/12/13 11:16:57;;;;;;;;;;;;;;;8.09;100.00;98892.47;4899028;29;20006;-75
2023/12/13 11:20:09;;;;;;;;;;;;;;;8.30;100.00;98890.16;4907920;29;19974;-75
2023/12/13 11:23:14;;;;;;;;;;;;;;;8.46;100.00;98889.97;4903579;29;19922;-74
2023/12/13 11:26:22;;;;;;;;;;;;;;;8.64;100.00;98887.84;4908913;29;19922;-76
2023/12/13 11:29:29;;;;;;;;;;;;;;;8.89;100.00;98887.75;4918056;29;19988;-76
2023/12/13 11:32:34;;;;;;;;;;;;;;;8.84;100.00;98893.31;4917897;29;19934;-75
2023/12/13 11:35:38;;;;;;;;;;;;;;;8.91;100.00;98888.50;4909017;29;20058;-75
2023/12/13 11:38:41;;;;;;;;;;;;;;;8.90;100.00;98886.81;4905129;29;19942;-75
2023/12/13 11:41:44;;;;;;;;;;;;;;;8.90;100.00;98888.59;4890880;29;20010;-77
2023/12/13 11:44:47;;;;;;;;;;;;;;;9.02;100.00;98882.50;4899328;29;19937;-76
2023/12/13 11:47:50;;;;;;;;;;;;;;;9.02;100.00;98885.09;4898902;29;19922;-77
2023/12/13 11:50:53;;;;;;;;;;;;;;;8.91;100.00;98893.72;4898546;29;19975;-77
2023/12/13 11:53:58;;;;;;;;;;;;;;;8.87;100.00;98894.03;4898726;29;19926;-76
2023/12/13 11:57:02;;;;;;;;;;;;;;;8.84;100.00;98885.50;4901728;29;20389;-76
2023/12/13 12:00:06;;;;;;;;;;;;;;;9.10;100.00;98880.19;4907974;29;19923;-76
2023/12/13 12:03:16;;;;;;;;;;;;;;;9.20;100.00;98888.19;4911380;29;20339;-76
2023/12/13 12:06:21;;;;;;;;;;;;;;;9.20;100.00;98893.38;4907902;29;19997;-76
2023/12/13 12:09:25;;;;;;;;;;;;;;;9.28;100.00;98881.47;4901810;29;20454;-76
2023/12/13 12:12:28;;;;;;;;;;;;;;;9.53;100.00;98877.84;4902192;29;19930;-76
2023/12/13 12:15:35;;;;;;;;;;;;;;;9.48;100.00;98885.22;4912708;29;19926;-76
2023/12/13 12:18:38;;;;;;;;;;;;;;;9.50;100.00;98872.88;4907497;29;19923;-76
2023/12/13 12:21:44;;;;;;;;;;;;;;;9.70;100.00;98883.59;4898511;29;19939;-77
2023/12/13 12:24:51;;;;;;;;;;;;;;;9.76;100.00;98872.69;4900149;29;20172;-77
2023/12/13 12:27:57;;;;;;;;;;;;;;;9.89;100.00;98870.84;4901933;29;19935;-77
2023/12/13 12:31:30;;;;;;;;;;;;;;;9.71;100.00;98864.41;4906095;29;20395;-76
2023/12/13 12:34:34;;;;;;;;;;;;;;;9.76;100.00;98867.47;4905846;29;20318;-77
2023/12/13 12:38:26;;;;;;;;;;;;;;;9.74;100.00;98874.59;4908291;29;19969;-78
2023/12/13 12:41:34;;;;;;;;;;;;;;;9.62;100.00;98870.31;4916903;29;20003;-78
2023/12/13 12:44:38;;;;;;;;;;;;;;;9.46;100.00;98861.00;4898436;29;20092;-78
2023/12/13 12:47:42;;;;;;;;;;;;;;;9.39;100.00;98861.59;4900094;29;20336;-78
2023/12/13 12:50:45;;;;;;;;;;;;;;;9.50;100.00;98862.44;4908290;29;19971;-77
2023/12/13 12:53:48;;;;;;;;;;;;;;;9.65;100.00;98864.84;4904939;29;19926;-78
2023/12/13 12:56:51;;;;;;;;;;;;;;;9.79;100.00;98856.81;4916745;29;19973;-77
2023/12/13 13:00:07;;;;;;;;;;;;;;;9.85;100.00;98856.34;4899640;29;20407;-78
2023/12/13 13:03:10;;;;;;;;;;;;;;;9.72;100.00;98860.84;4908268;29;20001;-78
2023/12/13 13:06:14;;;;;;;;;;;;;;;9.40;100.00;98851.03;4907027;29;19925;-77
2023/12/13 13:09:18;;;;;;;;;;;;;;;9.40;100.00;98853.63;4905845;29;20359;-77
2023/12/13 13:12:23;;;;;;;;;;;;;;;9.42;100.00;98856.97;4895485;29;20091;-78
2023/12/13 13:15:26;;;;;;;;;;;;;;;9.52;100.00;98863.16;4905495;29;19921;-77
2023/12/13 13:18:30;;;;;;;;;;;;;;;9.55;100.00;98862.94;4887843;29;20063;-77
2023/12/13 13:21:33;;;;;;;;;;;;;;;9.53;100.00;98861.38;4908495;29;19975;-77
2023/12/13 13:25:01;;;;;;;;;;;;;;;9.62;100.00;98859.88;4905770;29;19970;-78
2023/12/13 13:29:13;;;;;;;;;;;;;;;9.75;100.00;98866.66;4872151;29;19974;-84
2023/12/13 13:32:17;;;;;;;;;;;;;;;9.75;100.00;98865.81;4904272;29;20022;-78
2023/12/13 13:35:20;;;;;;;;;;;;;;;9.68;100.00;98865.44;4909178;29;20805;-77
2023/12/13 13:38:23;;;;;;;;;;;;;;;9.72;100.00;98856.44;4909639;29;19922;-77
2023/12/13 13:41:28;;;;;;;;;;;;;;;9.78;100.00;98866.41;4907671;29;19926;-77
2023/12/13 13:44:31;;;;;;;;;;;;;;;10.07;100.00;98865.16;4916434;29;19922;-76
2023/12/13 13:47:34;;;;;;;;;;;;;;;10.06;100.00;98872.16;4915829;29;19921;-76
2023/12/13 13:50:37;;;;;;;;;;;;;;;9.90;100.00;98869.06;4914382;29;19922;-76
2023/12/13 13:53:40;;;;;;;;;;;;;;;9.77;100.00;98866.56;4905299;29;19925;-76
2023/12/13 13:56:43;;;;;;;;;;;;;;;9.58;100.00;98863.66;4897041;29;20031;-76
2023/12/13 13:59:46;;;;;;;;;;;;;;;9.58;100.00;98866.28;4897124;29;19931;-76
2023/12/13 14:02:50;;;;;;;;;;;;;;;9.52;100.00;98876.19;4915890;29;19973;-76
2023/12/13 14:05:55;;;;;;;;;;;;;;;9.32;100.00;98879.47;4915814;29;20037;-76
2023/12/13 14:08:59;;;;;;;;;;;;;;;9.19;100.00;98881.28;4915894;29;19971;-75
2023/12/13 14:12:01;;;;;;;;;;;;;;;9.04;100.00;98881.47;4915735;29;19925;-75
2023/12/13 14:15:05;;;;;;;;;;;;;;;8.97;100.00;98880.25;4916503;29;19922;-76
2023/12/13 14:18:08;;;;;;;;;;;;;;;8.82;100.00;98870.91;4908330;29;19968;-76
2023/12/13 14:21:17;;;;;;;;;;;;;;;8.75;100.00;98880.94;4908649;29;19970;-77
2023/12/13 14:24:20;;;;;;;;;;;;;;;8.70;100.00;98882.19;4903954;29;19970;-76
2023/12/13 14:27:25;;;;;;;;;;;;;;;8.69;100.00;98886.59;4898114;29;20389;-75
2023/12/13 14:30:28;;;;;;;;;;;;;;;8.72;100.00;98882.94;4911851;29;19922;-76
2023/12/13 14:33:31;;;;;;;;;;;;;;;8.68;100.00;98884.06;4919059;29;20018;-76
2023/12/13 14:36:34;;;;;;;;;;;;;;;8.63;100.00;98876.59;4907393;29;20307;-76
2023/12/13 14:39:39;;;;;;;;;;;;;;;8.48;100.00;98883.69;4913041;29;20407;-77
2023/12/13 14:42:45;;;;;;;;;;;;;;;8.40;100.00;98887.78;4907615;29;19922;-77
2023/12/13 14:45:48;;;;;;;;;;;;;;;8.34;100.00;98891.63;4914153;29;19922;-77
2023/12/13 14:48:51;;;;;;;;;;;;;;;8.31;100.00;98895.25;4919263;29;19922;-77
2023/12/13 14:51:54;;;;;;;;;;;;;;;8.18;100.00;98901.44;4919097;29;19945;-76
2023/12/13 14:54:58;;;;;;;;;;;;;;;8.05;100.00;98907.47;4900285;29;19959;-77
2023/12/13 14:58:01;;;;;;;;;;;;;;;8.04;100.00;98915.34;4901929;29;20359;-77
2023/12/13 15:01:05;;;;;;;;;;;;;;;8.10;100.00;98920.16;4899893;29;20287;-76
2023/12/13 15:04:09;;;;;;;;;;;;;;;7.96;100.00;98923.69;4899691;29;19931;-76
2023/12/13 15:07:13;;;;;;;;;;;;;;;8.04;100.00;98926.63;4900011;29;19937;-77
2023/12/13 15:10:16;;;;;;;;;;;;;;;7.88;100.00;98926.81;4909904;29;19922;-77
2023/12/13 15:13:21;;;;;;;;;;;;;;;7.81;100.00;98928.13;4917616;29;19990;-76
2023/12/13 15:16:24;;;;;;;;;;;;;;;7.72;100.00;98941.75;4917971;29;20009;-76
2023/12/13 15:19:27;;;;;;;;;;;;;;;7.60;100.00;98948.59;4918075;29;20455;-76
2023/12/13 15:22:31;;;;;;;;;;;;;;;7.56;100.00;98951.50;4917476;29;20001;-76
2023/12/13 15:25:34;;;;;;;;;;;;;;;7.55;100.00;98957.63;4917401;29;19922;-77
2023/12/13 15:28:37;;;;;;;;;;;;;;;7.55;100.00;98961.06;4918221;29;19922;-78
2023/12/13 15:31:39;;;;;;;;;;;;;;;7.50;100.00;98957.09;4918351;29;19974;-77
2023/12/13 15:34:43;;;;;;;;;;;;;;;7.33;100.00;98965.97;4918710;29;19970;-77
2023/12/13 15:37:46;;;;;;;;;;;;;;;7.36;100.00;98966.63;4917962;29;20005;-77
2023/12/13 15:40:49;;;;;;;;;;;;;;;7.37;100.00;98965.69;4918439;29;19966;-77
2023/12/13 15:43:53;;;;;;;;;;;;;;;7.38;100.00;98975.16;4918282;29;19980;-78
2023/12/13 15:46:57;;;;;;;;;;;;;;;7.40;100.00;98980.25;4918167;29;19923;-78
2023/12/13 15:50:05;;;;;;;;;;;;;;;7.29;100.00;98990.50;4918271;29;19926;-78
2023/12/13 15:53:10;;;;;;;;;;;;;;;7.29;100.00;98995.72;4918279;29;19977;-79
2023/12/13 15:56:15;;;;;;;;;;;;;;;7.29;100.00;98993.13;4909987;29;19954;-76
2023/12/13 15:59:21;;;;;;;;;;;;;;;7.22;100.00;98990.06;4877568;29;20329;-75
2023/12/13 16:02:24;;;;;;;;;;;;;;;7.15;100.00;99000.03;4887565;29;20299;-79
2023/12/13 16:05:27;;;;;;;;;;;;;;;7.15;100.00;99007.00;4899353;29;19982;-80